FSC weather

Figari Sud-Corse Airport
Figari Sud-Corse, Corsica, France

Public forecast

Using degrees Celsius for public forecast. Weather courtesy of forecast.io.

Current aviation weather report (METAR) for Figari Sud-Corse Airport

Retrieved 2019/12/05 19:30 UTC (0 seconds ago):

LFKF 051930Z AUTO 04006KT 9999 FEW024/// BKN038/// BKN052/// ///TCU 12/11 Q1022

Aviation forecast (TAF) for Figari Sud-Corse Airport

Forecast is more than 12 hours old.

Retrieved 2019/12/05 06:55 UTC (12 hours ago):

TAF LFKF 050650Z 0506/0603 CNL